Time;durP1;ratioP1;P1;durP2;ratioP2;P2;SDS_P1;SDS_P2;PMS_P1;PMS_P2;Temp;Humidity;BMP_temperature;BMP_pressure;BME280_temperature;BME280_humidity;BME280_pressure;Samples;Min_cycle;Max_cycle;Signal;HPM_P1;HPM_P2
2022/06/14 00:01:55;;;;;;;5.40;3.33;;;;;;;;;;4994432;28;20455;-80
2022/06/14 00:04:21;;;;;;;3.53;3.23;;;;;;;;;;4994053;28;20494;-82
2022/06/14 00:06:47;;;;;;;9.00;4.20;;;;;;;;;;4994807;28;20235;-81
2022/06/14 00:09:14;;;;;;;6.70;3.90;;;;;;;;;;4998550;28;20482;-81
2022/06/14 00:11:41;;;;;;;5.50;2.83;;;;;;;;;;4999136;28;20984;-80
2022/06/14 00:14:10;;;;;;;4.33;3.47;;;;;;;;;;4993909;28;20848;-81
2022/06/14 00:16:38;;;;;;;8.13;3.40;;;;;;;;;;4991249;28;20490;-80
2022/06/14 00:19:05;;;;;;;9.03;2.97;;;;;;;;;;4997330;28;20485;-81
2022/06/14 00:21:32;;;;;;;9.93;3.50;;;;;;;;;;4992259;28;20470;-80
2022/06/14 00:23:59;;;;;;;5.13;3.00;;;;;;;;;;4997306;28;20481;-80
2022/06/14 00:26:25;;;;;;;7.90;3.13;;;;;;;;;;4994431;28;20517;-81
2022/06/14 00:28:52;;;;;;;4.70;2.90;;;;;;;;;;4991540;28;20478;-81
2022/06/14 00:31:20;;;;;;;8.60;2.83;;;;;;;;;;4991592;28;20484;-80
2022/06/14 00:33:48;;;;;;;4.00;3.03;;;;;;;;;;4994467;28;20470;-81
2022/06/14 00:36:20;;;;;;;5.80;3.67;;;;;;;;;;4997619;28;20832;-80
2022/06/14 00:38:47;;;;;;;6.03;2.70;;;;;;;;;;4994577;28;21656;-81
2022/06/14 00:41:18;;;;;;;3.63;2.43;;;;;;;;;;4993016;28;20473;-81
2022/06/14 00:43:44;;;;;;;4.00;2.60;;;;;;;;;;5010814;28;20482;-81
2022/06/14 00:46:13;;;;;;;3.87;3.47;;;;;;;;;;5008453;28;20558;-81
2022/06/14 00:48:40;;;;;;;3.07;2.67;;;;;;;;;;5014155;28;20476;-82
2022/06/14 00:51:11;;;;;;;5.43;3.30;;;;;;;;;;5012267;28;20454;-81
2022/06/14 00:53:39;;;;;;;4.93;2.77;;;;;;;;;;5017044;28;20994;-83
2022/06/14 00:56:06;;;;;;;5.70;2.77;;;;;;;;;;5004548;28;20475;-83
2022/06/14 00:58:35;;;;;;;7.40;2.87;;;;;;;;;;5008945;28;20533;-82
2022/06/14 01:01:03;;;;;;;6.00;3.50;;;;;;;;;;5004566;28;20458;-83
2022/06/14 01:03:31;;;;;;;5.40;3.80;;;;;;;;;;5007131;28;20564;-81
2022/06/14 01:06:07;;;;;;;6.70;3.80;;;;;;;;;;5005638;28;20508;-81
2022/06/14 01:08:37;;;;;;;10.47;4.63;;;;;;;;;;5001439;28;20476;-81
2022/06/14 01:11:04;;;;;;;13.03;4.90;;;;;;;;;;4994794;28;20472;-81
2022/06/14 01:13:31;;;;;;;8.70;3.60;;;;;;;;;;4995812;28;20466;-81
2022/06/14 01:15:57;;;;;;;10.03;5.30;;;;;;;;;;4996784;28;20869;-81
2022/06/14 01:18:25;;;;;;;11.67;3.77;;;;;;;;;;4993892;28;21001;-81
2022/06/14 01:20:51;;;;;;;6.27;4.00;;;;;;;;;;4995931;28;20949;-81
2022/06/14 01:23:19;;;;;;;9.40;3.80;;;;;;;;;;4996187;28;20581;-81
2022/06/14 01:25:47;;;;;;;7.97;4.83;;;;;;;;;;4996453;28;20521;-81
2022/06/14 01:28:15;;;;;;;8.37;4.57;;;;;;;;;;4999812;28;20461;-81
2022/06/14 01:30:45;;;;;;;6.17;3.87;;;;;;;;;;4999405;28;20458;-81
2022/06/14 01:33:13;;;;;;;9.33;4.43;;;;;;;;;;4997005;28;20964;-81
2022/06/14 01:35:43;;;;;;;6.30;3.90;;;;;;;;;;4999197;28;20477;-81
2022/06/14 01:38:12;;;;;;;10.00;4.30;;;;;;;;;;5001378;28;21049;-80
2022/06/14 01:40:44;;;;;;;5.60;3.60;;;;;;;;;;4999912;28;20462;-81
2022/06/14 01:43:18;;;;;;;7.77;4.37;;;;;;;;;;4994925;28;20517;-81
2022/06/14 01:45:49;;;;;;;9.20;4.57;;;;;;;;;;4998659;28;20477;-81
2022/06/14 01:48:20;;;;;;;9.20;4.30;;;;;;;;;;4998523;28;20462;-81
2022/06/14 01:53:40;;;;;;;8.83;5.93;;;;;;;;;;4999247;28;20556;-81
2022/06/14 01:56:12;;;;;;;8.53;4.20;;;;;;;;;;4999449;28;20486;-81
2022/06/14 01:58:43;;;;;;;6.33;4.77;;;;;;;;;;4998847;28;20477;-81
2022/06/14 02:01:14;;;;;;;8.60;4.40;;;;;;;;;;4996489;28;20458;-81
2022/06/14 02:06:32;;;;;;;6.67;4.10;;;;;;;;;;4999413;28;20496;-81
2022/06/14 02:09:03;;;;;;;8.43;4.93;;;;;;;;;;4996037;28;20545;-80
2022/06/14 02:11:32;;;;;;;12.50;4.93;;;;;;;;;;4998620;28;20470;-81
2022/06/14 02:14:05;;;;;;;8.67;5.17;;;;;;;;;;4999530;28;20466;-81
2022/06/14 02:16:33;;;;;;;8.00;4.00;;;;;;;;;;4996769;28;20484;-80
2022/06/14 02:19:04;;;;;;;9.03;5.23;;;;;;;;;;4997474;28;20490;-81
2022/06/14 02:21:33;;;;;;;8.77;5.10;;;;;;;;;;4999052;28;20477;-82
2022/06/14 02:24:01;;;;;;;11.70;5.20;;;;;;;;;;4995143;28;20470;-81
2022/06/14 02:26:30;;;;;;;9.63;4.73;;;;;;;;;;4997938;28;20487;-81
2022/06/14 02:29:03;;;;;;;6.60;4.70;;;;;;;;;;4996148;28;21017;-81
2022/06/14 02:31:31;;;;;;;9.33;4.47;;;;;;;;;;4996046;28;20839;-80
2022/06/14 02:33:59;;;;;;;7.60;4.77;;;;;;;;;;5002447;28;21028;-80
2022/06/14 02:36:28;;;;;;;7.50;4.80;;;;;;;;;;5000568;28;21001;-81
2022/06/14 02:38:57;;;;;;;7.20;5.17;;;;;;;;;;4996217;28;20592;-80
2022/06/14 02:41:28;;;;;;;9.50;4.70;;;;;;;;;;4996109;28;20462;-81
2022/06/14 02:43:57;;;;;;;10.80;5.70;;;;;;;;;;4993987;28;20477;-81
2022/06/14 02:46:28;;;;;;;9.73;6.70;;;;;;;;;;4994397;28;20565;-81
2022/06/14 02:48:57;;;;;;;7.77;5.30;;;;;;;;;;4994943;28;20604;-81
2022/06/14 02:51:25;;;;;;;12.33;5.27;;;;;;;;;;4999575;28;20477;-81
2022/06/14 02:53:53;;;;;;;10.00;5.47;;;;;;;;;;4995574;28;20489;-81
2022/06/14 02:56:21;;;;;;;9.60;4.37;;;;;;;;;;4999624;28;20486;-81
2022/06/14 02:58:52;;;;;;;12.70;4.93;;;;;;;;;;4997709;28;20470;-81
2022/06/14 03:01:21;;;;;;;8.90;5.40;;;;;;;;;;4992638;28;20470;-81
2022/06/14 03:03:51;;;;;;;12.43;5.17;;;;;;;;;;4999886;28;20497;-81
2022/06/14 03:06:21;;;;;;;8.83;5.37;;;;;;;;;;4993895;28;20490;-81
2022/06/14 03:08:49;;;;;;;7.67;5.30;;;;;;;;;;4992283;28;20550;-81
2022/06/14 03:11:19;;;;;;;8.43;5.30;;;;;;;;;;4994359;28;20470;-81
2022/06/14 03:13:51;;;;;;;11.83;5.33;;;;;;;;;;5001121;28;20472;-81
2022/06/14 03:16:24;;;;;;;9.30;5.73;;;;;;;;;;4995817;28;20482;-81
2022/06/14 03:18:55;;;;;;;9.60;5.47;;;;;;;;;;4993060;28;20501;-80
2022/06/14 03:21:25;;;;;;;12.27;5.13;;;;;;;;;;4993959;28;20967;-80
2022/06/14 03:23:54;;;;;;;6.60;4.70;;;;;;;;;;4993030;28;20995;-80
2022/06/14 03:26:26;;;;;;;16.80;5.60;;;;;;;;;;4994611;28;21077;-80
2022/06/14 03:28:55;;;;;;;10.73;5.07;;;;;;;;;;4993943;28;20469;-81
2022/06/14 03:31:23;;;;;;;12.30;6.33;;;;;;;;;;4997221;28;20471;-80
2022/06/14 03:33:56;;;;;;;11.60;7.17;;;;;;;;;;4994555;28;20991;-80
2022/06/14 03:36:24;;;;;;;10.70;6.00;;;;;;;;;;4998711;28;20495;-80
2022/06/14 03:38:51;;;;;;;8.90;5.70;;;;;;;;;;4994735;28;20473;-81
2022/06/14 03:41:20;;;;;;;15.97;5.90;;;;;;;;;;4995100;28;20596;-80
2022/06/14 03:43:48;;;;;;;8.47;6.47;;;;;;;;;;4997664;28;20479;-80
2022/06/14 03:46:15;;;;;;;9.27;5.90;;;;;;;;;;4996703;28;20558;-80
2022/06/14 03:48:44;;;;;;;13.40;6.77;;;;;;;;;;5001727;28;20476;-80
2022/06/14 03:51:13;;;;;;;13.13;7.33;;;;;;;;;;4992350;28;20619;-80
2022/06/14 03:53:48;;;;;;;9.20;7.23;;;;;;;;;;4992818;28;21232;-80
2022/06/14 03:56:24;;;;;;;14.53;7.20;;;;;;;;;;4997170;28;20485;-80
2022/06/14 03:59:13;;;;;;;10.30;6.30;;;;;;;;;;4991984;28;20476;-80
2022/06/14 04:01:42;;;;;;;9.30;6.87;;;;;;;;;;4995112;28;20621;-81
2022/06/14 04:04:17;;;;;;;11.70;6.10;;;;;;;;;;4990104;28;20475;-80
2022/06/14 04:06:48;;;;;;;10.90;6.73;;;;;;;;;;4994809;28;20898;-80
2022/06/14 04:09:27;;;;;;;16.07;9.03;;;;;;;;;;4994749;28;20476;-81
2022/06/14 04:11:59;;;;;;;13.83;6.80;;;;;;;;;;4992496;28;20546;-80
2022/06/14 04:14:33;;;;;;;17.73;8.60;;;;;;;;;;4993717;28;20833;-80
2022/06/14 04:17:11;;;;;;;12.50;8.17;;;;;;;;;;4990676;28;20478;-80
2022/06/14 04:19:43;;;;;;;13.53;7.53;;;;;;;;;;4991404;28;20493;-79
2022/06/14 04:22:16;;;;;;;17.27;7.47;;;;;;;;;;4993958;28;20461;-80
2022/06/14 04:24:49;;;;;;;13.43;7.50;;;;;;;;;;4990744;28;20501;-80
2022/06/14 04:27:16;;;;;;;11.20;8.17;;;;;;;;;;4992165;28;20549;-80
2022/06/14 04:29:47;;;;;;;12.63;7.63;;;;;;;;;;4990508;28;20482;-81
2022/06/14 04:32:14;;;;;;;17.80;8.50;;;;;;;;;;5016444;22;20883;-83
2022/06/14 04:34:44;;;;;;;12.57;7.07;;;;;;;;;;5000408;28;20477;-81
2022/06/14 04:37:12;;;;;;;12.23;7.40;;;;;;;;;;5032390;22;20499;-82
2022/06/14 04:39:41;;;;;;;12.83;8.00;;;;;;;;;;5040346;28;20476;-81
2022/06/14 04:42:11;;;;;;;14.43;7.23;;;;;;;;;;5025310;28;20469;-80
2022/06/14 04:44:41;;;;;;;15.30;7.57;;;;;;;;;;5021831;28;20501;-81
2022/06/14 04:47:10;;;;;;;14.97;8.07;;;;;;;;;;5019800;28;20465;-80
2022/06/14 04:49:39;;;;;;;10.43;6.50;;;;;;;;;;5021104;28;20480;-81
2022/06/14 04:52:10;;;;;;;12.73;7.60;;;;;;;;;;5021296;28;20477;-83
2022/06/14 04:54:39;;;;;;;12.40;7.10;;;;;;;;;;5019924;28;20944;-81
2022/06/14 04:57:07;;;;;;;16.77;7.40;;;;;;;;;;5020730;28;20461;-81
2022/06/14 04:59:38;;;;;;;12.23;7.37;;;;;;;;;;5019857;28;20480;-80
2022/06/14 05:02:09;;;;;;;10.37;7.70;;;;;;;;;;5021170;28;20488;-81
2022/06/14 05:04:37;;;;;;;14.50;7.50;;;;;;;;;;5020357;28;20489;-82
2022/06/14 05:07:07;;;;;;;10.33;7.93;;;;;;;;;;5020554;28;20817;-82
2022/06/14 05:09:35;;;;;;;11.33;6.73;;;;;;;;;;5019624;28;20477;-81
2022/06/14 05:12:04;;;;;;;20.37;7.17;;;;;;;;;;5020640;28;20833;-82
2022/06/14 05:14:32;;;;;;;16.23;7.23;;;;;;;;;;5020321;28;20468;-81
2022/06/14 05:17:02;;;;;;;16.73;7.63;;;;;;;;;;5019516;28;20472;-80
2022/06/14 05:19:31;;;;;;;12.03;6.63;;;;;;;;;;5019939;28;20477;-80
2022/06/14 05:22:00;;;;;;;10.63;6.90;;;;;;;;;;5018498;28;20488;-81
2022/06/14 05:24:27;;;;;;;12.83;7.27;;;;;;;;;;5020057;28;20481;-81
2022/06/14 05:27:21;;;;;;;21.73;7.73;;;;;;;;;;5020034;28;20455;-82
2022/06/14 05:29:50;;;;;;;16.37;7.47;;;;;;;;;;5020035;28;20473;-81
2022/06/14 05:32:21;;;;;;;13.30;6.63;;;;;;;;;;5022469;28;20484;-81
2022/06/14 05:34:50;;;;;;;16.43;7.00;;;;;;;;;;5020621;28;20997;-81
2022/06/14 05:37:20;;;;;;;11.50;6.80;;;;;;;;;;5020922;28;20472;-81
2022/06/14 05:39:49;;;;;;;14.67;6.70;;;;;;;;;;5019552;28;20505;-82
2022/06/14 05:42:18;;;;;;;12.60;6.83;;;;;;;;;;5020392;28;20508;-82
2022/06/14 05:44:46;;;;;;;12.57;7.30;;;;;;;;;;5018246;28;20489;-82
2022/06/14 05:47:14;;;;;;;20.47;7.30;;;;;;;;;;5020320;28;20465;-81
2022/06/14 05:49:44;;;;;;;14.00;6.53;;;;;;;;;;5019370;28;21012;-82
2022/06/14 05:52:15;;;;;;;16.00;7.00;;;;;;;;;;5027354;22;20569;-81
2022/06/14 05:54:45;;;;;;;12.87;7.50;;;;;;;;;;5033743;28;20457;-81
2022/06/14 05:57:14;;;;;;;11.93;7.27;;;;;;;;;;5038792;28;20452;-81
2022/06/14 05:59:44;;;;;;;11.53;6.93;;;;;;;;;;5038527;28;20483;-81
2022/06/14 06:02:13;;;;;;;20.93;8.13;;;;;;;;;;5036271;28;20484;-80
2022/06/14 06:04:42;;;;;;;12.97;6.70;;;;;;;;;;5017669;28;20499;-82
2022/06/14 06:07:12;;;;;;;11.10;6.60;;;;;;;;;;5017726;28;20808;-82
2022/06/14 06:09:41;;;;;;;21.17;7.97;;;;;;;;;;5026042;28;20469;-82
2022/06/14 06:12:10;;;;;;;21.73;7.00;;;;;;;;;;5017947;28;20447;-81
2022/06/14 06:14:38;;;;;;;12.20;6.60;;;;;;;;;;5019771;28;20484;-82
2022/06/14 06:17:06;;;;;;;17.20;6.07;;;;;;;;;;5019486;28;20468;-81
2022/06/14 06:19:34;;;;;;;19.20;6.60;;;;;;;;;;5024006;28;20474;-82
2022/06/14 06:22:01;;;;;;;9.97;6.87;;;;;;;;;;5025115;28;20460;-82
2022/06/14 06:24:33;;;;;;;14.43;6.90;;;;;;;;;;5022777;28;20819;-82
2022/06/14 06:27:02;;;;;;;13.80;6.07;;;;;;;;;;5023770;28;20452;-80
2022/06/14 06:29:33;;;;;;;15.93;6.00;;;;;;;;;;5023841;28;20464;-82
2022/06/14 06:32:00;;;;;;;8.50;5.87;;;;;;;;;;5022191;28;20860;-82
2022/06/14 06:34:27;;;;;;;17.90;6.10;;;;;;;;;;5023493;28;20469;-83
2022/06/14 06:37:00;;;;;;;12.77;5.90;;;;;;;;;;5024121;28;20460;-82
2022/06/14 06:39:33;;;;;;;9.60;4.87;;;;;;;;;;5023307;28;20463;-83
2022/06/14 06:42:03;;;;;;;13.50;5.20;;;;;;;;;;5022108;28;21023;-82
2022/06/14 06:44:31;;;;;;;13.80;5.37;;;;;;;;;;5021880;28;20482;-82
2022/06/14 06:47:01;;;;;;;15.30;6.00;;;;;;;;;;5023656;28;20783;-81
2022/06/14 06:49:31;;;;;;;13.87;5.13;;;;;;;;;;5020408;28;20981;-82
2022/06/14 06:52:01;;;;;;;9.13;4.23;;;;;;;;;;5024129;28;20446;-82
2022/06/14 06:54:31;;;;;;;16.23;5.47;;;;;;;;;;5023046;28;20476;-81
2022/06/14 06:57:00;;;;;;;13.03;4.70;;;;;;;;;;5022906;28;20956;-78
2022/06/14 06:59:28;;;;;;;11.93;4.60;;;;;;;;;;5022390;28;21085;-80
2022/06/14 07:01:57;;;;;;;8.60;3.17;;;;;;;;;;5023587;28;20435;-82
2022/06/14 07:05:03;;;;;;;10.87;4.23;;;;;;;;;;5023075;28;20495;-80
2022/06/14 07:07:14;;;;;;;9.17;3.00;;;;;;;;;;5021630;28;20515;-81
2022/06/14 07:09:42;;;;;;;11.00;3.60;;;;;;;;;;5021510;28;20487;-81
2022/06/14 07:12:14;;;;;;;12.47;3.50;;;;;;;;;;5022996;28;20457;-81
2022/06/14 07:14:46;;;;;;;11.23;4.13;;;;;;;;;;5022666;28;20477;-81
2022/06/14 07:17:15;;;;;;;10.00;3.50;;;;;;;;;;5022113;28;20439;-82
2022/06/14 07:19:43;;;;;;;8.00;3.60;;;;;;;;;;5022371;28;20561;-80
2022/06/14 07:22:12;;;;;;;7.40;2.87;;;;;;;;;;5022987;28;20840;-81
2022/06/14 07:24:43;;;;;;;9.63;2.93;;;;;;;;;;5021613;28;20936;-79
2022/06/14 07:27:13;;;;;;;7.97;3.33;;;;;;;;;;5022506;28;20457;-82
2022/06/14 07:29:41;;;;;;;11.93;3.63;;;;;;;;;;5021251;28;20457;-81
2022/06/14 07:32:10;;;;;;;7.53;3.03;;;;;;;;;;5021912;28;20949;-81
2022/06/14 07:34:37;;;;;;;7.93;2.50;;;;;;;;;;5022102;28;20445;-81
2022/06/14 07:37:06;;;;;;;6.13;2.30;;;;;;;;;;5020379;28;20424;-79
2022/06/14 07:39:36;;;;;;;11.67;3.10;;;;;;;;;;5021338;28;20487;-81
2022/06/14 07:42:08;;;;;;;6.90;2.73;;;;;;;;;;5022709;28;20443;-81
2022/06/14 07:44:46;;;;;;;6.93;3.50;;;;;;;;;;5019821;28;20472;-81
2022/06/14 07:47:16;;;;;;;7.30;2.37;;;;;;;;;;5021906;28;20430;-81
2022/06/14 07:49:48;;;;;;;7.23;2.00;;;;;;;;;;5022136;28;20468;-81
2022/06/14 07:52:18;;;;;;;9.00;3.30;;;;;;;;;;5021995;28;21116;-81
2022/06/14 07:54:45;;;;;;;10.37;2.53;;;;;;;;;;5021655;28;20485;-79
2022/06/14 07:57:14;;;;;;;7.90;3.33;;;;;;;;;;5021160;28;20469;-80
2022/06/14 07:59:44;;;;;;;10.03;3.10;;;;;;;;;;5020576;28;21062;-81
2022/06/14 08:02:14;;;;;;;10.23;3.13;;;;;;;;;;5026305;28;20432;-80
2022/06/14 08:04:44;;;;;;;6.83;2.33;;;;;;;;;;5023753;28;20470;-79
2022/06/14 08:07:12;;;;;;;8.00;2.87;;;;;;;;;;5022060;28;20452;-80
2022/06/14 08:09:41;;;;;;;12.03;2.90;;;;;;;;;;5017226;28;20995;-81
2022/06/14 08:12:10;;;;;;;8.60;2.90;;;;;;;;;;5019388;28;20511;-81
2022/06/14 08:14:40;;;;;;;11.70;2.43;;;;;;;;;;5018803;28;20488;-81
2022/06/14 08:17:09;;;;;;;8.73;3.03;;;;;;;;;;5021048;28;20465;-80
2022/06/14 08:19:42;;;;;;;4.47;2.10;;;;;;;;;;5019711;28;20451;-80
2022/06/14 08:22:10;;;;;;;9.03;2.17;;;;;;;;;;5019651;28;20464;-79
2022/06/14 08:24:38;;;;;;;6.33;2.50;;;;;;;;;;5019304;28;21054;-79
2022/06/14 08:27:06;;;;;;;6.30;1.80;;;;;;;;;;5021757;28;21008;-79
2022/06/14 08:29:35;;;;;;;7.70;2.30;;;;;;;;;;5020615;28;20448;-80
2022/06/14 08:32:03;;;;;;;7.83;1.90;;;;;;;;;;5020776;28;20460;-78
2022/06/14 08:34:33;;;;;;;6.47;2.00;;;;;;;;;;5019659;28;20557;-80
2022/06/14 08:37:02;;;;;;;9.57;2.70;;;;;;;;;;5021770;28;20441;-78
2022/06/14 08:39:31;;;;;;;7.40;2.20;;;;;;;;;;5015999;28;20481;-80
2022/06/14 08:42:13;;;;;;;7.53;1.90;;;;;;;;;;5018743;28;20461;-78
2022/06/14 08:44:43;;;;;;;7.20;2.50;;;;;;;;;;5020423;28;20476;-78
2022/06/14 08:47:29;;;;;;;7.87;2.00;;;;;;;;;;5014147;28;20473;-78
2022/06/14 08:49:59;;;;;;;9.03;2.50;;;;;;;;;;5020725;28;20464;-78
2022/06/14 08:52:37;;;;;;;4.07;2.23;;;;;;;;;;5020143;28;20482;-79
2022/06/14 08:55:12;;;;;;;13.67;3.40;;;;;;;;;;5018213;28;20563;-79
2022/06/14 08:58:00;;;;;;;7.37;2.27;;;;;;;;;;5021357;28;20492;-80
2022/06/14 09:00:35;;;;;;;5.07;2.30;;;;;;;;;;5017630;28;20972;-80
2022/06/14 09:03:16;;;;;;;4.70;1.60;;;;;;;;;;5018760;28;20480;-80
2022/06/14 09:06:02;;;;;;;9.90;2.20;;;;;;;;;;5020527;28;20491;-80
2022/06/14 09:08:46;;;;;;;5.37;2.10;;;;;;;;;;5018748;28;20461;-81
2022/06/14 09:11:22;;;;;;;3.90;1.63;;;;;;;;;;5021405;28;20524;-81
2022/06/14 09:13:58;;;;;;;9.00;2.77;;;;;;;;;;5018576;28;20843;-82
2022/06/14 09:16:45;;;;;;;5.30;2.20;;;;;;;;;;5017217;28;20460;-79
2022/06/14 09:19:26;;;;;;;7.90;2.10;;;;;;;;;;5018980;28;20452;-82
2022/06/14 09:22:03;;;;;;;4.10;1.87;;;;;;;;;;5019082;28;20476;-81
2022/06/14 09:24:45;;;;;;;3.07;1.93;;;;;;;;;;5018980;28;20970;-79
2022/06/14 09:27:18;;;;;;;6.43;2.57;;;;;;;;;;5019009;28;20474;-83
2022/06/14 09:29:54;;;;;;;2.57;1.83;;;;;;;;;;5019819;28;20453;-80
2022/06/14 09:33:09;;;;;;;9.57;2.80;;;;;;;;;;5017567;28;20492;-82
2022/06/14 09:35:33;;;;;;;9.03;3.17;;;;;;;;;;4991966;28;20812;-81
2022/06/14 09:38:07;;;;;;;6.00;1.87;;;;;;;;;;5018676;28;20495;-80
2022/06/14 09:40:45;;;;;;;5.33;2.27;;;;;;;;;;5020112;28;20473;-81
2022/06/14 09:43:19;;;;;;;5.00;2.27;;;;;;;;;;5017133;28;20559;-82
2022/06/14 09:45:58;;;;;;;5.43;2.33;;;;;;;;;;5019522;28;20484;-81
2022/06/14 09:48:45;;;;;;;4.70;2.00;;;;;;;;;;5018929;28;20467;-81
2022/06/14 09:51:24;;;;;;;7.93;2.60;;;;;;;;;;4993242;28;20449;-80
2022/06/14 09:54:08;;;;;;;4.10;1.80;;;;;;;;;;5028386;28;20492;-79
2022/06/14 09:56:46;;;;;;;4.43;2.00;;;;;;;;;;5022370;28;20436;-81
2022/06/14 09:59:36;;;;;;;5.17;2.10;;;;;;;;;;5022962;28;20475;-81
2022/06/14 10:02:06;;;;;;;6.57;2.20;;;;;;;;;;5023821;28;20479;-83
2022/06/14 10:04:45;;;;;;;4.50;2.27;;;;;;;;;;5024014;28;20476;-80
2022/06/14 10:07:26;;;;;;;6.57;2.43;;;;;;;;;;5022712;28;20486;-81
2022/06/14 10:10:10;;;;;;;5.50;2.13;;;;;;;;;;5009996;28;20460;-80
2022/06/14 10:12:47;;;;;;;6.27;2.60;;;;;;;;;;5022244;28;20473;-80
2022/06/14 10:15:16;;;;;;;4.70;2.47;;;;;;;;;;5023649;28;20517;-80
2022/06/14 10:17:52;;;;;;;6.70;2.43;;;;;;;;;;5022913;28;21040;-79
2022/06/14 10:20:28;;;;;;;7.10;1.90;;;;;;;;;;5024395;28;20460;-81
2022/06/14 10:23:05;;;;;;;5.40;2.37;;;;;;;;;;5023287;28;20468;-79
2022/06/14 10:25:34;;;;;;;3.00;1.93;;;;;;;;;;5023570;28;20854;-79
2022/06/14 10:28:14;;;;;;;6.33;2.57;;;;;;;;;;5022123;28;20480;-80
2022/06/14 10:30:45;;;;;;;9.90;2.17;;;;;;;;;;5023693;28;20449;-79
2022/06/14 10:33:20;;;;;;;3.20;1.70;;;;;;;;;;5017880;28;20492;-79
2022/06/14 10:35:51;;;;;;;3.53;2.07;;;;;;;;;;5022905;28;20465;-81
2022/06/14 10:38:41;;;;;;;5.57;2.30;;;;;;;;;;5023739;28;20988;-80
2022/06/14 10:41:12;;;;;;;6.47;2.03;;;;;;;;;;5029338;28;20990;-79
2022/06/14 10:43:43;;;;;;;2.30;1.67;;;;;;;;;;5021544;28;20859;-79
2022/06/14 10:46:22;;;;;;;6.60;2.27;;;;;;;;;;5023576;28;20497;-79
2022/06/14 10:49:06;;;;;;;3.50;1.87;;;;;;;;;;5021827;28;20500;-80
2022/06/14 10:51:40;;;;;;;4.23;1.77;;;;;;;;;;5020962;28;20465;-80
2022/06/14 10:54:09;;;;;;;4.00;2.00;;;;;;;;;;5021082;28;21016;-80
2022/06/14 10:56:42;;;;;;;5.77;1.80;;;;;;;;;;5020558;28;20972;-79
2022/06/14 10:59:19;;;;;;;4.13;1.70;;;;;;;;;;5019290;28;20468;-79
2022/06/14 11:01:51;;;;;;;7.20;2.20;;;;;;;;;;5021778;28;20473;-78
2022/06/14 11:04:21;;;;;;;3.97;1.90;;;;;;;;;;5022149;28;20876;-79
2022/06/14 11:07:08;;;;;;;7.43;2.30;;;;;;;;;;5022783;28;20480;-79
2022/06/14 11:09:41;;;;;;;7.13;2.03;;;;;;;;;;5023083;28;20453;-78
2022/06/14 11:12:14;;;;;;;3.70;1.83;;;;;;;;;;5022938;28;20477;-80
2022/06/14 11:14:46;;;;;;;6.87;2.40;;;;;;;;;;5021185;28;20901;-78
2022/06/14 11:17:22;;;;;;;5.83;2.00;;;;;;;;;;5021822;28;20838;-78
2022/06/14 11:19:53;;;;;;;7.20;2.20;;;;;;;;;;5020773;28;20465;-80
2022/06/14 11:22:30;;;;;;;4.47;1.93;;;;;;;;;;5021537;28;20466;-79
2022/06/14 11:25:02;;;;;;;8.80;2.20;;;;;;;;;;5022523;28;20445;-79
2022/06/14 11:27:34;;;;;;;6.10;2.30;;;;;;;;;;5020155;28;20469;-78
2022/06/14 11:30:09;;;;;;;4.50;1.80;;;;;;;;;;5022551;28;20525;-79
2022/06/14 11:32:38;;;;;;;4.63;1.80;;;;;;;;;;5022094;28;20489;-79
2022/06/14 11:35:11;;;;;;;3.20;1.63;;;;;;;;;;5020215;28;20956;-80
2022/06/14 11:37:53;;;;;;;6.43;2.50;;;;;;;;;;5019873;28;20858;-78
2022/06/14 11:40:23;;;;;;;7.00;1.93;;;;;;;;;;5026492;28;20456;-79
2022/06/14 11:42:55;;;;;;;13.17;1.97;;;;;;;;;;5020548;28;20999;-80
2022/06/14 11:45:30;;;;;;;4.63;2.00;;;;;;;;;;5022882;28;20541;-78
2022/06/14 11:48:04;;;;;;;4.07;1.73;;;;;;;;;;5016627;28;20491;-79
2022/06/14 11:50:34;;;;;;;4.63;1.57;;;;;;;;;;5021914;28;20827;-79
2022/06/14 11:53:17;;;;;;;5.07;1.97;;;;;;;;;;5040893;22;20495;-95
2022/06/14 11:55:48;;;;;;;3.83;1.80;;;;;;;;;;5041651;28;20460;-92
2022/06/14 11:58:19;;;;;;;6.10;2.00;;;;;;;;;;5037403;28;20479;-89
2022/06/14 12:01:01;;;;;;;8.10;2.13;;;;;;;;;;5039871;28;20465;-91
2022/06/14 12:03:44;;;;;;;3.80;1.67;;;;;;;;;;5040383;22;20491;-82
2022/06/14 12:06:18;;;;;;;2.30;1.47;;;;;;;;;;5031161;28;20472;-82
2022/06/14 12:08:57;;;;;;;8.10;2.07;;;;;;;;;;5030180;28;20477;-82
2022/06/14 12:11:25;;;;;;;5.17;2.13;;;;;;;;;;5028490;28;20460;-82
2022/06/14 12:14:02;;;;;;;5.90;2.00;;;;;;;;;;5014222;28;20989;-82
2022/06/14 12:16:32;;;;;;;5.60;1.63;;;;;;;;;;5012332;28;20548;-82
2022/06/14 12:19:03;;;;;;;1.90;1.60;;;;;;;;;;5010099;28;20509;-82
2022/06/14 12:21:34;;;;;;;3.53;1.90;;;;;;;;;;5006396;28;20545;-82
2022/06/14 12:24:03;;;;;;;3.40;2.10;;;;;;;;;;5007224;28;20503;-82
2022/06/14 12:26:34;;;;;;;4.00;1.70;;;;;;;;;;5013342;28;20489;-83
2022/06/14 12:29:04;;;;;;;4.37;1.80;;;;;;;;;;5011440;28;20448;-82
2022/06/14 12:31:35;;;;;;;4.40;1.90;;;;;;;;;;5006789;28;20476;-82
2022/06/14 12:36:43;;;;;;;4.70;2.53;;;;;;;;;;4607205;22;21105;-91
2022/06/14 12:39:13;;;;;;;6.57;2.53;;;;;;;;;;5044402;28;20451;-90
2022/06/14 12:41:41;;;;;;;3.60;1.60;;;;;;;;;;5031914;28;20478;-89
2022/06/14 12:44:19;;;;;;;3.40;1.63;;;;;;;;;;5034498;28;20492;-90
2022/06/14 12:46:46;;;;;;;5.80;2.20;;;;;;;;;;5022745;28;20480;-90
2022/06/14 12:49:16;;;;;;;4.83;2.10;;;;;;;;;;5022285;28;20532;-90
2022/06/14 12:51:49;;;;;;;8.60;2.30;;;;;;;;;;5021897;28;20499;-90
2022/06/14 12:54:17;;;;;;;6.67;2.33;;;;;;;;;;5016306;28;21017;-90
2022/06/14 12:56:53;;;;;;;3.27;1.80;;;;;;;;;;5014867;28;20472;-91
2022/06/14 12:59:45;;;;;;;3.43;1.40;;;;;;;;;;5035693;28;20523;-91
2022/06/14 13:02:15;;;;;;;3.37;1.70;;;;;;;;;;5014907;28;20534;-90
2022/06/14 13:04:44;;;;;;;3.30;1.97;;;;;;;;;;5022497;28;21130;-90
2022/06/14 13:07:27;;;;;;;3.20;2.00;;;;;;;;;;5022664;28;20469;-91
2022/06/14 13:10:03;;;;;;;5.13;1.50;;;;;;;;;;5017985;28;20478;-90
2022/06/14 13:12:36;;;;;;;3.13;1.60;;;;;;;;;;5019519;28;20515;-90
2022/06/14 13:15:07;;;;;;;6.00;2.03;;;;;;;;;;5020091;28;20444;-90
2022/06/14 13:17:40;;;;;;;3.80;1.77;;;;;;;;;;5017969;28;20584;-90
2022/06/14 13:20:15;;;;;;;3.50;2.20;;;;;;;;;;5019891;28;21073;-90
2022/06/14 13:22:46;;;;;;;4.97;1.43;;;;;;;;;;5021168;28;20477;-89
2022/06/14 13:25:40;;;;;;;2.17;1.93;;;;;;;;;;5020323;28;20477;-91
2022/06/14 13:28:11;;;;;;;1.97;1.40;;;;;;;;;;5019662;28;21089;-90
2022/06/14 13:30:42;;;;;;;7.20;2.03;;;;;;;;;;5026043;28;20465;-90
2022/06/14 13:33:16;;;;;;;6.23;2.37;;;;;;;;;;5026349;28;20484;-91
2022/06/14 13:35:52;;;;;;;3.63;1.73;;;;;;;;;;5023438;28;20884;-89
2022/06/14 13:38:22;;;;;;;3.70;1.73;;;;;;;;;;5023449;28;20523;-90
2022/06/14 13:40:51;;;;;;;5.50;1.77;;;;;;;;;;5023640;28;20445;-90
2022/06/14 13:43:27;;;;;;;4.17;1.90;;;;;;;;;;5025132;28;20823;-90
2022/06/14 13:45:59;;;;;;;4.30;2.40;;;;;;;;;;5024321;28;20443;-90
2022/06/14 13:48:33;;;;;;;4.10;1.63;;;;;;;;;;5023738;28;20523;-90
2022/06/14 13:51:15;;;;;;;4.10;2.30;;;;;;;;;;5026140;28;20492;-90
2022/06/14 13:57:04;;;;;;;18.60;3.17;;;;;;;;;;5023016;28;20960;-91
2022/06/14 14:15:23;;;;;;;4.73;1.77;;;;;;;;;;5686665;22;20586;-73
2022/06/14 14:17:53;;;;;;;5.20;2.00;;;;;;;;;;5038975;28;20506;-73
2022/06/14 14:20:31;;;;;;;5.70;2.20;;;;;;;;;;5044129;28;22029;-73
2022/06/14 14:23:02;;;;;;;4.70;2.33;;;;;;;;;;5041462;28;20468;-73
2022/06/14 14:25:31;;;;;;;5.60;2.17;;;;;;;;;;5031854;28;20486;-73
2022/06/14 14:28:01;;;;;;;3.60;1.47;;;;;;;;;;5021206;28;20488;-73
2022/06/14 14:30:43;;;;;;;3.07;1.60;;;;;;;;;;5045348;22;20487;-74
2022/06/14 14:33:12;;;;;;;5.47;1.70;;;;;;;;;;5041133;28;20483;-74
2022/06/14 14:35:40;;;;;;;3.70;1.77;;;;;;;;;;5043276;28;20456;-74
2022/06/14 14:38:10;;;;;;;5.03;1.53;;;;;;;;;;5043342;28;20483;-74
2022/06/14 14:40:39;;;;;;;3.23;1.30;;;;;;;;;;5026804;28;20495;-74
2022/06/14 14:43:11;;;;;;;3.63;1.43;;;;;;;;;;5021951;28;21183;-74
2022/06/14 14:45:40;;;;;;;8.50;2.30;;;;;;;;;;5023287;28;20468;-74
2022/06/14 14:48:11;;;;;;;4.33;1.73;;;;;;;;;;5022109;28;20666;-74
2022/06/14 14:50:41;;;;;;;2.70;1.57;;;;;;;;;;5022351;28;20494;-74
2022/06/14 14:53:14;;;;;;;4.30;1.90;;;;;;;;;;5021839;28;20472;-74
2022/06/14 14:55:41;;;;;;;6.27;2.10;;;;;;;;;;5022499;28;20461;-74
2022/06/14 14:58:11;;;;;;;5.93;2.53;;;;;;;;;;5023260;28;21231;-74
2022/06/14 15:06:19;;;;;;;6.70;2.57;;;;;;;;;;5023287;28;20438;-74
2022/06/14 15:08:48;;;;;;;4.50;1.90;;;;;;;;;;5022270;28;20480;-74
2022/06/14 15:11:22;;;;;;;4.17;2.33;;;;;;;;;;5022612;28;20480;-74
2022/06/14 15:13:49;;;;;;;15.40;3.80;;;;;;;;;;5022544;28;20488;-74
2022/06/14 15:16:19;;;;;;;7.00;2.40;;;;;;;;;;5020996;28;20475;-74
2022/06/14 15:21:35;;;;;;;2.50;1.83;;;;;;;;;;5021440;28;20460;-74
2022/06/14 15:24:03;;;;;;;5.30;2.20;;;;;;;;;;5020662;28;20469;-74
2022/06/14 15:26:29;;;;;;;6.93;2.10;;;;;;;;;;5019722;28;20461;-74
2022/06/14 15:28:57;;;;;;;6.80;2.30;;;;;;;;;;5013175;28;20488;-74
2022/06/14 15:31:43;;;;;;;12.40;2.27;;;;;;;;;;5019910;28;20837;-74
2022/06/14 15:34:16;;;;;;;3.87;1.57;;;;;;;;;;5022165;28;20844;-75
2022/06/14 15:36:44;;;;;;;2.67;1.83;;;;;;;;;;5023797;28;20456;-74
2022/06/14 15:39:18;;;;;;;6.87;1.90;;;;;;;;;;5021219;28;20479;-74
2022/06/14 15:41:45;;;;;;;5.70;2.40;;;;;;;;;;5022542;28;20472;-75